sensor_id;sensor_type;location;lat;lon;timestamp;temperature;humidity
39219;DHT22;24934;52.752;6.964;2023-06-19T00:00:07;22.80;99.90
39219;DHT22;24934;52.752;6.964;2023-06-19T00:02:44;22.80;99.90
39219;DHT22;24934;52.752;6.964;2023-06-19T00:05:10;22.80;99.90
39219;DHT22;24934;52.752;6.964;2023-06-19T00:07:36;22.90;99.90
39219;DHT22;24934;52.752;6.964;2023-06-19T00:10:03;22.90;99.90
39219;DHT22;24934;52.752;6.964;2023-06-19T00:12:28;22.90;99.90
39219;DHT22;24934;52.752;6.964;2023-06-19T00:14:54;22.90;99.90
39219;DHT22;24934;52.752;6.964;2023-06-19T00:17:19;22.90;99.90
39219;DHT22;24934;52.752;6.964;2023-06-19T00:19:45;22.90;99.90
39219;DHT22;24934;52.752;6.964;2023-06-19T00:22:12;22.90;99.90
39219;DHT22;24934;52.752;6.964;2023-06-19T00:24:37;22.90;99.90
39219;DHT22;24934;52.752;6.964;2023-06-19T00:27:03;22.90;99.90
39219;DHT22;24934;52.752;6.964;2023-06-19T00:29:30;22.90;99.90
39219;DHT22;24934;52.752;6.964;2023-06-19T00:31:55;22.90;99.90
39219;DHT22;24934;52.752;6.964;2023-06-19T00:34:21;22.90;99.90
39219;DHT22;24934;52.752;6.964;2023-06-19T00:36:50;22.90;99.90
39219;DHT22;24934;52.752;6.964;2023-06-19T00:39:15;22.90;99.90
39219;DHT22;24934;52.752;6.964;2023-06-19T00:41:43;22.90;99.90
39219;DHT22;24934;52.752;6.964;2023-06-19T00:44:09;22.80;99.90
39219;DHT22;24934;52.752;6.964;2023-06-19T00:46:40;22.80;99.90
39219;DHT22;24934;52.752;6.964;2023-06-19T00:49:06;22.80;99.90
39219;DHT22;24934;52.752;6.964;2023-06-19T00:51:32;22.70;99.90
39219;DHT22;24934;52.752;6.964;2023-06-19T00:53:57;22.70;99.90
39219;DHT22;24934;52.752;6.964;2023-06-19T00:56:23;22.70;99.90
39219;DHT22;24934;52.752;6.964;2023-06-19T00:58:49;22.70;99.90
39219;DHT22;24934;52.752;6.964;2023-06-19T01:01:15;22.70;99.90
39219;DHT22;24934;52.752;6.964;2023-06-19T01:03:41;22.70;99.90
39219;DHT22;24934;52.752;6.964;2023-06-19T01:06:13;22.60;99.90
39219;DHT22;24934;52.752;6.964;2023-06-19T01:08:51;22.60;99.90
39219;DHT22;24934;52.752;6.964;2023-06-19T01:11:25;22.60;99.90
39219;DHT22;24934;52.752;6.964;2023-06-19T01:14:21;22.50;99.90
39219;DHT22;24934;52.752;6.964;2023-06-19T01:16:45;22.50;99.90
39219;DHT22;24934;52.752;6.964;2023-06-19T01:19:17;22.50;99.90
39219;DHT22;24934;52.752;6.964;2023-06-19T01:21:44;22.50;99.90
39219;DHT22;24934;52.752;6.964;2023-06-19T01:24:10;22.50;99.90
39219;DHT22;24934;52.752;6.964;2023-06-19T01:26:36;22.40;99.90
39219;DHT22;24934;52.752;6.964;2023-06-19T01:29:02;22.40;99.90
39219;DHT22;24934;52.752;6.964;2023-06-19T01:31:35;22.40;99.90
39219;DHT22;24934;52.752;6.964;2023-06-19T01:34:04;22.40;99.90
39219;DHT22;24934;52.752;6.964;2023-06-19T01:36:32;22.40;99.90
39219;DHT22;24934;52.752;6.964;2023-06-19T01:38:58;22.30;99.90
39219;DHT22;24934;52.752;6.964;2023-06-19T01:41:25;22.30;99.90
39219;DHT22;24934;52.752;6.964;2023-06-19T01:43:52;22.30;99.90
39219;DHT22;24934;52.752;6.964;2023-06-19T01:46:18;22.20;99.90
39219;DHT22;24934;52.752;6.964;2023-06-19T01:48:44;22.20;99.90
39219;DHT22;24934;52.752;6.964;2023-06-19T01:51:10;22.10;99.90
39219;DHT22;24934;52.752;6.964;2023-06-19T01:53:36;22.10;99.90
39219;DHT22;24934;52.752;6.964;2023-06-19T01:56:02;22.10;99.90
39219;DHT22;24934;52.752;6.964;2023-06-19T01:58:28;22.00;99.90
39219;DHT22;24934;52.752;6.964;2023-06-19T02:00:54;22.00;99.90
39219;DHT22;24934;52.752;6.964;2023-06-19T02:03:20;22.00;99.90
39219;DHT22;24934;52.752;6.964;2023-06-19T02:05:46;21.90;99.90
39219;DHT22;24934;52.752;6.964;2023-06-19T02:08:12;21.90;99.90
39219;DHT22;24934;52.752;6.964;2023-06-19T02:10:37;21.90;99.90
39219;DHT22;24934;52.752;6.964;2023-06-19T02:13:03;22.00;99.90
39219;DHT22;24934;52.752;6.964;2023-06-19T02:15:29;22.00;99.90
39219;DHT22;24934;52.752;6.964;2023-06-19T02:17:57;22.00;99.90
39219;DHT22;24934;52.752;6.964;2023-06-19T02:20:26;22.00;99.90
39219;DHT22;24934;52.752;6.964;2023-06-19T02:22:51;22.00;99.90
39219;DHT22;24934;52.752;6.964;2023-06-19T02:25:20;22.10;99.90
39219;DHT22;24934;52.752;6.964;2023-06-19T02:27:45;22.10;99.90
39219;DHT22;24934;52.752;6.964;2023-06-19T02:30:13;22.10;99.90
39219;DHT22;24934;52.752;6.964;2023-06-19T02:32:39;22.10;99.90
39219;DHT22;24934;52.752;6.964;2023-06-19T02:35:06;22.10;99.90
39219;DHT22;24934;52.752;6.964;2023-06-19T02:37:34;22.00;99.90
39219;DHT22;24934;52.752;6.964;2023-06-19T02:40:02;22.00;99.90
39219;DHT22;24934;52.752;6.964;2023-06-19T02:42:28;21.90;99.90
39219;DHT22;24934;52.752;6.964;2023-06-19T02:44:54;21.90;99.90
39219;DHT22;24934;52.752;6.964;2023-06-19T02:47:20;21.90;99.90
39219;DHT22;24934;52.752;6.964;2023-06-19T02:49:45;21.90;99.90
39219;DHT22;24934;52.752;6.964;2023-06-19T02:52:11;21.90;99.90
39219;DHT22;24934;52.752;6.964;2023-06-19T02:54:36;21.80;99.90
39219;DHT22;24934;52.752;6.964;2023-06-19T02:57:02;21.80;99.90
39219;DHT22;24934;52.752;6.964;2023-06-19T02:59:28;21.80;99.90
39219;DHT22;24934;52.752;6.964;2023-06-19T03:01:53;21.80;99.90
39219;DHT22;24934;52.752;6.964;2023-06-19T03:04:19;21.80;99.90
39219;DHT22;24934;52.752;6.964;2023-06-19T03:06:45;21.80;99.90
39219;DHT22;24934;52.752;6.964;2023-06-19T03:09:10;21.70;99.90
39219;DHT22;24934;52.752;6.964;2023-06-19T03:11:39;21.70;99.90
39219;DHT22;24934;52.752;6.964;2023-06-19T03:14:05;21.70;99.90
39219;DHT22;24934;52.752;6.964;2023-06-19T03:16:33;21.60;99.90
39219;DHT22;24934;52.752;6.964;2023-06-19T03:18:59;21.60;99.90
39219;DHT22;24934;52.752;6.964;2023-06-19T03:21:25;21.60;99.90
39219;DHT22;24934;52.752;6.964;2023-06-19T03:23:51;21.50;99.90
39219;DHT22;24934;52.752;6.964;2023-06-19T03:26:18;21.50;99.90
39219;DHT22;24934;52.752;6.964;2023-06-19T03:28:45;21.50;99.90
39219;DHT22;24934;52.752;6.964;2023-06-19T03:31:12;21.50;99.90
39219;DHT22;24934;52.752;6.964;2023-06-19T03:33:38;21.40;99.90
39219;DHT22;24934;52.752;6.964;2023-06-19T03:36:04;21.40;99.90
39219;DHT22;24934;52.752;6.964;2023-06-19T03:38:30;21.40;99.90
39219;DHT22;24934;52.752;6.964;2023-06-19T03:40:55;21.40;99.90
39219;DHT22;24934;52.752;6.964;2023-06-19T03:43:21;21.50;99.90
39219;DHT22;24934;52.752;6.964;2023-06-19T03:45:47;21.50;99.90
39219;DHT22;24934;52.752;6.964;2023-06-19T03:48:12;21.50;99.90
39219;DHT22;24934;52.752;6.964;2023-06-19T03:50:38;21.50;99.90
39219;DHT22;24934;52.752;6.964;2023-06-19T03:53:04;21.50;99.90
39219;DHT22;24934;52.752;6.964;2023-06-19T03:55:30;21.50;99.90
39219;DHT22;24934;52.752;6.964;2023-06-19T03:57:56;21.50;99.90
39219;DHT22;24934;52.752;6.964;2023-06-19T04:00:21;21.60;99.90
39219;DHT22;24934;52.752;6.964;2023-06-19T04:02:47;21.60;99.90
39219;DHT22;24934;52.752;6.964;2023-06-19T04:05:14;21.60;99.90
39219;DHT22;24934;52.752;6.964;2023-06-19T04:07:41;21.70;99.90
39219;DHT22;24934;52.752;6.964;2023-06-19T04:10:07;21.70;99.90
39219;DHT22;24934;52.752;6.964;2023-06-19T04:12:33;21.70;99.90
39219;DHT22;24934;52.752;6.964;2023-06-19T04:14:58;21.70;99.90
39219;DHT22;24934;52.752;6.964;2023-06-19T04:17:24;21.70;99.90
39219;DHT22;24934;52.752;6.964;2023-06-19T04:19:50;21.70;99.90
39219;DHT22;24934;52.752;6.964;2023-06-19T04:22:17;21.70;99.90
39219;DHT22;24934;52.752;6.964;2023-06-19T04:24:42;21.70;99.90
39219;DHT22;24934;52.752;6.964;2023-06-19T04:27:08;21.70;99.90
39219;DHT22;24934;52.752;6.964;2023-06-19T04:29:34;21.70;99.90
39219;DHT22;24934;52.752;6.964;2023-06-19T04:32:01;21.70;99.90
39219;DHT22;24934;52.752;6.964;2023-06-19T04:34:29;21.70;99.90
39219;DHT22;24934;52.752;6.964;2023-06-19T04:36:54;21.70;99.90
39219;DHT22;24934;52.752;6.964;2023-06-19T04:39:24;21.60;99.90
39219;DHT22;24934;52.752;6.964;2023-06-19T04:41:50;21.60;99.90
39219;DHT22;24934;52.752;6.964;2023-06-19T04:44:15;21.60;99.90
39219;DHT22;24934;52.752;6.964;2023-06-19T04:46:42;21.60;99.90
39219;DHT22;24934;52.752;6.964;2023-06-19T04:49:09;21.60;99.90
39219;DHT22;24934;52.752;6.964;2023-06-19T04:51:35;21.60;99.90
39219;DHT22;24934;52.752;6.964;2023-06-19T04:54:01;21.50;99.90
39219;DHT22;24934;52.752;6.964;2023-06-19T04:56:27;21.50;99.90
39219;DHT22;24934;52.752;6.964;2023-06-19T04:58:52;21.60;99.90
39219;DHT22;24934;52.752;6.964;2023-06-19T05:01:21;21.60;99.90
39219;DHT22;24934;52.752;6.964;2023-06-19T05:03:53;21.70;99.90
39219;DHT22;24934;52.752;6.964;2023-06-19T05:06:20;21.70;99.90
39219;DHT22;24934;52.752;6.964;2023-06-19T05:08:45;21.80;99.90
39219;DHT22;24934;52.752;6.964;2023-06-19T05:11:11;21.80;99.90
39219;DHT22;24934;52.752;6.964;2023-06-19T05:13:36;21.80;99.90
39219;DHT22;24934;52.752;6.964;2023-06-19T05:16:02;21.80;99.90
39219;DHT22;24934;52.752;6.964;2023-06-19T05:18:28;21.80;99.90
39219;DHT22;24934;52.752;6.964;2023-06-19T05:20:53;21.70;99.90
39219;DHT22;24934;52.752;6.964;2023-06-19T05:23:19;21.70;99.90
39219;DHT22;24934;52.752;6.964;2023-06-19T05:25:44;21.60;99.90
39219;DHT22;24934;52.752;6.964;2023-06-19T05:28:10;21.60;99.90
39219;DHT22;24934;52.752;6.964;2023-06-19T05:30:38;21.60;99.90
39219;DHT22;24934;52.752;6.964;2023-06-19T05:33:04;21.60;99.90
39219;DHT22;24934;52.752;6.964;2023-06-19T05:35:30;21.60;99.90
39219;DHT22;24934;52.752;6.964;2023-06-19T05:37:59;21.60;99.90
39219;DHT22;24934;52.752;6.964;2023-06-19T05:40:24;21.50;99.90
39219;DHT22;24934;52.752;6.964;2023-06-19T05:42:50;21.40;99.90
39219;DHT22;24934;52.752;6.964;2023-06-19T05:45:16;21.30;99.90
39219;DHT22;24934;52.752;6.964;2023-06-19T05:47:41;21.30;99.90
39219;DHT22;24934;52.752;6.964;2023-06-19T05:50:07;21.20;99.90
39219;DHT22;24934;52.752;6.964;2023-06-19T05:52:33;21.10;99.90
39219;DHT22;24934;52.752;6.964;2023-06-19T05:54:58;21.10;99.90
39219;DHT22;24934;52.752;6.964;2023-06-19T05:57:24;21.00;99.90
39219;DHT22;24934;52.752;6.964;2023-06-19T05:59:50;21.00;99.90
39219;DHT22;24934;52.752;6.964;2023-06-19T06:02:21;21.10;99.90
39219;DHT22;24934;52.752;6.964;2023-06-19T06:04:47;21.10;99.90
39219;DHT22;24934;52.752;6.964;2023-06-19T06:07:12;21.20;99.90
39219;DHT22;24934;52.752;6.964;2023-06-19T06:09:39;21.30;99.90
39219;DHT22;24934;52.752;6.964;2023-06-19T06:12:05;21.30;99.90
39219;DHT22;24934;52.752;6.964;2023-06-19T06:14:30;21.30;99.90
39219;DHT22;24934;52.752;6.964;2023-06-19T06:16:56;21.30;99.90
39219;DHT22;24934;52.752;6.964;2023-06-19T06:19:22;21.40;99.90
39219;DHT22;24934;52.752;6.964;2023-06-19T06:21:51;21.40;99.90
39219;DHT22;24934;52.752;6.964;2023-06-19T06:24:17;21.50;99.90
39219;DHT22;24934;52.752;6.964;2023-06-19T06:26:42;21.60;99.90
39219;DHT22;24934;52.752;6.964;2023-06-19T06:29:08;21.70;99.90
39219;DHT22;24934;52.752;6.964;2023-06-19T06:31:38;21.90;99.90
39219;DHT22;24934;52.752;6.964;2023-06-19T06:34:04;22.00;99.90
39219;DHT22;24934;52.752;6.964;2023-06-19T06:36:29;22.00;99.90
39219;DHT22;24934;52.752;6.964;2023-06-19T06:38:55;22.10;99.90
39219;DHT22;24934;52.752;6.964;2023-06-19T06:41:21;22.20;99.90
39219;DHT22;24934;52.752;6.964;2023-06-19T06:43:46;22.30;99.90
39219;DHT22;24934;52.752;6.964;2023-06-19T06:46:12;22.40;99.90
39219;DHT22;24934;52.752;6.964;2023-06-19T06:48:37;22.40;99.90
39219;DHT22;24934;52.752;6.964;2023-06-19T06:51:03;22.60;99.90
39219;DHT22;24934;52.752;6.964;2023-06-19T06:53:29;22.80;99.90
39219;DHT22;24934;52.752;6.964;2023-06-19T06:56:02;22.80;99.90
39219;DHT22;24934;52.752;6.964;2023-06-19T06:58:28;22.70;99.90
39219;DHT22;24934;52.752;6.964;2023-06-19T07:00:55;22.40;99.90
39219;DHT22;24934;52.752;6.964;2023-06-19T07:03:21;22.30;99.90
39219;DHT22;24934;52.752;6.964;2023-06-19T07:05:47;22.30;99.90
39219;DHT22;24934;52.752;6.964;2023-06-19T07:08:14;22.20;99.90
39219;DHT22;24934;52.752;6.964;2023-06-19T07:10:39;22.10;99.90
39219;DHT22;24934;52.752;6.964;2023-06-19T07:13:05;22.10;99.90
39219;DHT22;24934;52.752;6.964;2023-06-19T07:15:30;22.10;99.90
39219;DHT22;24934;52.752;6.964;2023-06-19T07:17:56;22.10;99.90
39219;DHT22;24934;52.752;6.964;2023-06-19T07:20:22;22.20;99.90
39219;DHT22;24934;52.752;6.964;2023-06-19T07:22:50;22.30;99.90
39219;DHT22;24934;52.752;6.964;2023-06-19T07:25:17;22.30;99.90
39219;DHT22;24934;52.752;6.964;2023-06-19T07:27:43;22.40;99.90
39219;DHT22;24934;52.752;6.964;2023-06-19T07:30:09;22.30;99.90
39219;DHT22;24934;52.752;6.964;2023-06-19T07:32:36;22.20;99.90
39219;DHT22;24934;52.752;6.964;2023-06-19T07:35:02;22.20;99.90
39219;DHT22;24934;52.752;6.964;2023-06-19T07:37:28;22.30;99.90
39219;DHT22;24934;52.752;6.964;2023-06-19T07:39:54;22.30;99.90
39219;DHT22;24934;52.752;6.964;2023-06-19T07:42:19;22.20;99.90
39219;DHT22;24934;52.752;6.964;2023-06-19T07:44:45;22.20;99.90
39219;DHT22;24934;52.752;6.964;2023-06-19T07:47:12;22.20;99.90
39219;DHT22;24934;52.752;6.964;2023-06-19T07:49:39;22.30;99.90
39219;DHT22;24934;52.752;6.964;2023-06-19T07:52:05;22.30;99.90
39219;DHT22;24934;52.752;6.964;2023-06-19T07:54:34;22.20;99.90
39219;DHT22;24934;52.752;6.964;2023-06-19T07:56:59;22.10;99.90
39219;DHT22;24934;52.752;6.964;2023-06-19T07:59:25;22.10;99.90
39219;DHT22;24934;52.752;6.964;2023-06-19T08:01:51;22.10;99.90
39219;DHT22;24934;52.752;6.964;2023-06-19T08:04:17;22.20;99.90
39219;DHT22;24934;52.752;6.964;2023-06-19T08:06:43;22.70;99.90
39219;DHT22;24934;52.752;6.964;2023-06-19T08:09:08;23.10;99.90
39219;DHT22;24934;52.752;6.964;2023-06-19T08:11:34;23.30;99.90
39219;DHT22;24934;52.752;6.964;2023-06-19T08:14:01;23.30;99.90
39219;DHT22;24934;52.752;6.964;2023-06-19T08:16:26;23.40;99.90
39219;DHT22;24934;52.752;6.964;2023-06-19T08:18:52;23.50;99.90
39219;DHT22;24934;52.752;6.964;2023-06-19T08:21:17;23.40;99.90
39219;DHT22;24934;52.752;6.964;2023-06-19T08:23:43;23.20;99.90
39219;DHT22;24934;52.752;6.964;2023-06-19T08:26:10;23.20;99.90
39219;DHT22;24934;52.752;6.964;2023-06-19T08:28:36;23.10;99.90
39219;DHT22;24934;52.752;6.964;2023-06-19T08:31:02;22.80;99.90
39219;DHT22;24934;52.752;6.964;2023-06-19T08:33:28;22.60;99.90
39219;DHT22;24934;52.752;6.964;2023-06-19T08:35:53;22.40;99.90
39219;DHT22;24934;52.752;6.964;2023-06-19T08:38:19;22.30;99.90
39219;DHT22;24934;52.752;6.964;2023-06-19T08:40:45;22.10;99.90
39219;DHT22;24934;52.752;6.964;2023-06-19T08:43:11;22.00;99.90
39219;DHT22;24934;52.752;6.964;2023-06-19T08:45:37;21.90;99.90
39219;DHT22;24934;52.752;6.964;2023-06-19T08:48:03;21.80;99.90
39219;DHT22;24934;52.752;6.964;2023-06-19T08:50:32;21.80;99.90
39219;DHT22;24934;52.752;6.964;2023-06-19T08:52:57;21.70;99.90
39219;DHT22;24934;52.752;6.964;2023-06-19T08:55:23;21.60;99.90
39219;DHT22;24934;52.752;6.964;2023-06-19T08:57:50;21.70;99.90
39219;DHT22;24934;52.752;6.964;2023-06-19T09:00:28;21.70;99.90
39219;DHT22;24934;52.752;6.964;2023-06-19T09:03:00;21.80;99.90
39219;DHT22;24934;52.752;6.964;2023-06-19T09:05:27;22.00;99.90
39219;DHT22;24934;52.752;6.964;2023-06-19T09:07:57;22.20;99.90
39219;DHT22;24934;52.752;6.964;2023-06-19T09:10:24;22.50;99.90
39219;DHT22;24934;52.752;6.964;2023-06-19T09:12:57;22.70;99.90
39219;DHT22;24934;52.752;6.964;2023-06-19T09:15:26;22.80;99.90
39219;DHT22;24934;52.752;6.964;2023-06-19T09:18:10;22.80;99.90
39219;DHT22;24934;52.752;6.964;2023-06-19T09:20:41;22.60;99.90
39219;DHT22;24934;52.752;6.964;2023-06-19T09:23:11;22.50;99.90
39219;DHT22;24934;52.752;6.964;2023-06-19T09:25:50;22.40;99.90
39219;DHT22;24934;52.752;6.964;2023-06-19T09:28:23;22.40;99.90
39219;DHT22;24934;52.752;6.964;2023-06-19T09:30:58;22.40;99.90
39219;DHT22;24934;52.752;6.964;2023-06-19T09:33:29;22.50;99.90
39219;DHT22;24934;52.752;6.964;2023-06-19T09:35:58;22.70;99.90
39219;DHT22;24934;52.752;6.964;2023-06-19T09:38:27;22.90;99.90
39219;DHT22;24934;52.752;6.964;2023-06-19T09:40:53;23.20;99.90
39219;DHT22;24934;52.752;6.964;2023-06-19T09:43:24;23.50;99.90
39219;DHT22;24934;52.752;6.964;2023-06-19T09:45:50;23.80;99.90
39219;DHT22;24934;52.752;6.964;2023-06-19T09:48:19;24.20;99.90
39219;DHT22;24934;52.752;6.964;2023-06-19T09:50:50;24.50;99.90
39219;DHT22;24934;52.752;6.964;2023-06-19T09:53:18;24.60;99.90
39219;DHT22;24934;52.752;6.964;2023-06-19T09:55:47;24.60;99.90
39219;DHT22;24934;52.752;6.964;2023-06-19T09:58:13;24.60;99.90
39219;DHT22;24934;52.752;6.964;2023-06-19T10:00:39;24.80;99.90
39219;DHT22;24934;52.752;6.964;2023-06-19T10:03:12;25.40;99.90
39219;DHT22;24934;52.752;6.964;2023-06-19T10:05:37;26.00;99.90
39219;DHT22;24934;52.752;6.964;2023-06-19T10:08:03;26.80;99.90
39219;DHT22;24934;52.752;6.964;2023-06-19T10:10:30;27.20;99.90
39219;DHT22;24934;52.752;6.964;2023-06-19T10:12:58;27.70;99.90
39219;DHT22;24934;52.752;6.964;2023-06-19T10:15:29;27.80;99.90
39219;DHT22;24934;52.752;6.964;2023-06-19T10:18:02;28.10;99.90
39219;DHT22;24934;52.752;6.964;2023-06-19T10:20:36;28.10;99.90
39219;DHT22;24934;52.752;6.964;2023-06-19T10:23:07;28.30;99.90
39219;DHT22;24934;52.752;6.964;2023-06-19T10:25:35;28.70;99.90
39219;DHT22;24934;52.752;6.964;2023-06-19T10:28:02;29.10;99.90
39219;DHT22;24934;52.752;6.964;2023-06-19T10:30:31;28.70;99.90
39219;DHT22;24934;52.752;6.964;2023-06-19T10:32:57;28.40;99.90
39219;DHT22;24934;52.752;6.964;2023-06-19T10:35:23;28.40;99.90
39219;DHT22;24934;52.752;6.964;2023-06-19T10:37:50;27.80;99.90
39219;DHT22;24934;52.752;6.964;2023-06-19T10:40:16;28.00;99.90
39219;DHT22;24934;52.752;6.964;2023-06-19T10:42:43;28.40;99.90
39219;DHT22;24934;52.752;6.964;2023-06-19T10:45:11;28.90;99.90
39219;DHT22;24934;52.752;6.964;2023-06-19T10:47:39;28.70;99.90
39219;DHT22;24934;52.752;6.964;2023-06-19T10:50:09;28.20;99.90
39219;DHT22;24934;52.752;6.964;2023-06-19T10:52:35;28.40;99.90
39219;DHT22;24934;52.752;6.964;2023-06-19T10:55:03;28.60;99.90
39219;DHT22;24934;52.752;6.964;2023-06-19T10:57:29;28.80;99.90
39219;DHT22;24934;52.752;6.964;2023-06-19T10:59:56;28.40;99.90
39219;DHT22;24934;52.752;6.964;2023-06-19T11:02:22;28.70;99.90
39219;DHT22;24934;52.752;6.964;2023-06-19T11:04:48;28.90;99.90
39219;DHT22;24934;52.752;6.964;2023-06-19T11:07:14;29.50;99.90
39219;DHT22;24934;52.752;6.964;2023-06-19T11:09:39;30.30;99.90
39219;DHT22;24934;52.752;6.964;2023-06-19T11:12:05;30.60;99.90
39219;DHT22;24934;52.752;6.964;2023-06-19T11:14:34;31.10;99.90
39219;DHT22;24934;52.752;6.964;2023-06-19T11:17:06;31.20;99.90
39219;DHT22;24934;52.752;6.964;2023-06-19T11:19:32;31.00;99.90
39219;DHT22;24934;52.752;6.964;2023-06-19T11:22:02;30.80;99.90
39219;DHT22;24934;52.752;6.964;2023-06-19T11:24:28;31.00;99.90
39219;DHT22;24934;52.752;6.964;2023-06-19T11:26:56;30.00;99.90
39219;DHT22;24934;52.752;6.964;2023-06-19T11:29:24;29.90;99.90
39219;DHT22;24934;52.752;6.964;2023-06-19T11:31:51;29.80;99.90
39219;DHT22;24934;52.752;6.964;2023-06-19T11:34:19;29.40;99.90
39219;DHT22;24934;52.752;6.964;2023-06-19T11:36:44;29.40;99.90
39219;DHT22;24934;52.752;6.964;2023-06-19T11:39:11;29.10;99.90
39219;DHT22;24934;52.752;6.964;2023-06-19T11:41:39;29.60;99.90
39219;DHT22;24934;52.752;6.964;2023-06-19T11:44:06;29.50;99.90
39219;DHT22;24934;52.752;6.964;2023-06-19T11:46:33;29.70;99.90
39219;DHT22;24934;52.752;6.964;2023-06-19T11:49:16;29.80;99.90
39219;DHT22;24934;52.752;6.964;2023-06-19T11:51:45;30.00;99.90
39219;DHT22;24934;52.752;6.964;2023-06-19T11:54:12;30.10;99.90
39219;DHT22;24934;52.752;6.964;2023-06-19T11:56:40;30.10;99.90
39219;DHT22;24934;52.752;6.964;2023-06-19T11:59:06;30.10;99.90
39219;DHT22;24934;52.752;6.964;2023-06-19T12:01:33;30.50;99.90
39219;DHT22;24934;52.752;6.964;2023-06-19T12:03:59;30.50;99.90
39219;DHT22;24934;52.752;6.964;2023-06-19T12:06:25;30.00;99.90
39219;DHT22;24934;52.752;6.964;2023-06-19T12:08:50;30.10;99.90
39219;DHT22;24934;52.752;6.964;2023-06-19T12:11:16;30.40;99.90
39219;DHT22;24934;52.752;6.964;2023-06-19T12:13:42;30.60;99.90
39219;DHT22;24934;52.752;6.964;2023-06-19T12:16:11;30.40;99.60
39219;DHT22;24934;52.752;6.964;2023-06-19T12:18:37;30.30;99.90
39219;DHT22;24934;52.752;6.964;2023-06-19T12:21:03;30.30;99.90
39219;DHT22;24934;52.752;6.964;2023-06-19T12:23:29;30.00;99.30
39219;DHT22;24934;52.752;6.964;2023-06-19T12:25:58;30.20;99.80
39219;DHT22;24934;52.752;6.964;2023-06-19T12:28:24;30.30;99.90
39219;DHT22;24934;52.752;6.964;2023-06-19T12:30:53;30.00;99.90
39219;DHT22;24934;52.752;6.964;2023-06-19T12:33:19;29.60;99.90
39219;DHT22;24934;52.752;6.964;2023-06-19T12:35:46;29.30;99.90
39219;DHT22;24934;52.752;6.964;2023-06-19T12:38:12;29.40;99.90
39219;DHT22;24934;52.752;6.964;2023-06-19T12:40:38;28.90;99.90
39219;DHT22;24934;52.752;6.964;2023-06-19T12:43:04;28.70;99.90
39219;DHT22;24934;52.752;6.964;2023-06-19T12:45:32;28.30;99.90
39219;DHT22;24934;52.752;6.964;2023-06-19T12:47:58;28.10;99.90
39219;DHT22;24934;52.752;6.964;2023-06-19T12:50:24;28.10;99.90
39219;DHT22;24934;52.752;6.964;2023-06-19T12:52:50;28.10;99.90
39219;DHT22;24934;52.752;6.964;2023-06-19T12:55:16;28.20;99.90
39219;DHT22;24934;52.752;6.964;2023-06-19T12:57:41;28.00;99.90
39219;DHT22;24934;52.752;6.964;2023-06-19T13:00:11;28.00;99.90
39219;DHT22;24934;52.752;6.964;2023-06-19T13:02:41;28.10;99.90
39219;DHT22;24934;52.752;6.964;2023-06-19T13:05:11;28.30;99.90
39219;DHT22;24934;52.752;6.964;2023-06-19T13:07:36;28.50;99.90
39219;DHT22;24934;52.752;6.964;2023-06-19T13:10:02;28.80;99.90
39219;DHT22;24934;52.752;6.964;2023-06-19T13:12:28;28.80;99.90
39219;DHT22;24934;52.752;6.964;2023-06-19T13:14:55;29.20;99.90
39219;DHT22;24934;52.752;6.964;2023-06-19T13:17:21;29.40;99.90
39219;DHT22;24934;52.752;6.964;2023-06-19T13:19:46;29.80;99.90
39219;DHT22;24934;52.752;6.964;2023-06-19T13:22:12;29.90;99.90
39219;DHT22;24934;52.752;6.964;2023-06-19T13:24:38;30.00;99.90
39219;DHT22;24934;52.752;6.964;2023-06-19T13:27:03;30.10;99.90
39219;DHT22;24934;52.752;6.964;2023-06-19T13:29:29;30.20;99.90
39219;DHT22;24934;52.752;6.964;2023-06-19T13:31:55;29.80;99.90
39219;DHT22;24934;52.752;6.964;2023-06-19T13:34:20;29.70;99.90
39219;DHT22;24934;52.752;6.964;2023-06-19T13:36:47;29.60;99.90
39219;DHT22;24934;52.752;6.964;2023-06-19T13:39:13;30.00;99.90
39219;DHT22;24934;52.752;6.964;2023-06-19T13:41:39;29.80;99.90
39219;DHT22;24934;52.752;6.964;2023-06-19T13:44:05;29.50;99.90
39219;DHT22;24934;52.752;6.964;2023-06-19T13:46:30;29.10;99.90
39219;DHT22;24934;52.752;6.964;2023-06-19T13:48:57;28.90;99.90
39219;DHT22;24934;52.752;6.964;2023-06-19T13:51:23;28.80;99.90
39219;DHT22;24934;52.752;6.964;2023-06-19T13:53:50;29.10;99.90
39219;DHT22;24934;52.752;6.964;2023-06-19T13:56:16;29.40;99.90
39219;DHT22;24934;52.752;6.964;2023-06-19T13:58:41;29.60;99.90
39219;DHT22;24934;52.752;6.964;2023-06-19T14:01:07;30.10;99.90
39219;DHT22;24934;52.752;6.964;2023-06-19T14:03:33;30.00;99.90
39219;DHT22;24934;52.752;6.964;2023-06-19T14:05:58;29.90;99.40
39219;DHT22;24934;52.752;6.964;2023-06-19T14:08:24;29.90;99.20
39219;DHT22;24934;52.752;6.964;2023-06-19T14:10:50;29.80;99.30
39219;DHT22;24934;52.752;6.964;2023-06-19T14:13:16;29.50;99.40
39219;DHT22;24934;52.752;6.964;2023-06-19T14:15:42;29.50;99.70
39219;DHT22;24934;52.752;6.964;2023-06-19T14:18:07;29.70;99.50
39219;DHT22;24934;52.752;6.964;2023-06-19T14:20:33;29.70;99.10
39219;DHT22;24934;52.752;6.964;2023-06-19T14:22:59;29.60;99.40
39219;DHT22;24934;52.752;6.964;2023-06-19T14:25:27;29.30;99.20
39219;DHT22;24934;52.752;6.964;2023-06-19T14:27:53;29.40;99.90
39219;DHT22;24934;52.752;6.964;2023-06-19T14:30:18;29.80;99.90
39219;DHT22;24934;52.752;6.964;2023-06-19T14:32:44;29.80;99.90
39219;DHT22;24934;52.752;6.964;2023-06-19T14:35:10;30.20;99.30
39219;DHT22;24934;52.752;6.964;2023-06-19T14:37:36;30.30;98.90
39219;DHT22;24934;52.752;6.964;2023-06-19T14:40:02;30.20;98.00
39219;DHT22;24934;52.752;6.964;2023-06-19T14:42:28;30.40;97.20
39219;DHT22;24934;52.752;6.964;2023-06-19T14:44:54;30.50;97.30
39219;DHT22;24934;52.752;6.964;2023-06-19T14:47:19;30.40;98.40
39219;DHT22;24934;52.752;6.964;2023-06-19T14:49:45;30.30;97.70
39219;DHT22;24934;52.752;6.964;2023-06-19T14:52:11;30.40;97.20
39219;DHT22;24934;52.752;6.964;2023-06-19T14:54:38;30.40;97.00
39219;DHT22;24934;52.752;6.964;2023-06-19T14:57:04;30.20;96.90
39219;DHT22;24934;52.752;6.964;2023-06-19T14:59:30;30.10;97.90
39219;DHT22;24934;52.752;6.964;2023-06-19T15:01:56;30.10;98.10
39219;DHT22;24934;52.752;6.964;2023-06-19T15:04:21;30.10;97.90
39219;DHT22;24934;52.752;6.964;2023-06-19T15:06:48;30.00;98.10
39219;DHT22;24934;52.752;6.964;2023-06-19T15:09:13;30.00;98.50
39219;DHT22;24934;52.752;6.964;2023-06-19T15:11:39;30.40;97.80
39219;DHT22;24934;52.752;6.964;2023-06-19T15:14:05;30.60;98.00
39219;DHT22;24934;52.752;6.964;2023-06-19T15:16:31;30.60;97.90
39219;DHT22;24934;52.752;6.964;2023-06-19T15:18:56;30.60;97.60
39219;DHT22;24934;52.752;6.964;2023-06-19T15:21:22;30.40;97.20
39219;DHT22;24934;52.752;6.964;2023-06-19T15:23:48;30.10;97.20
39219;DHT22;24934;52.752;6.964;2023-06-19T15:26:17;29.80;97.20